Time;durP1;ratioP1;P1;durP2;ratioP2;P2;SDS_P1;SDS_P2;PMS_P1;PMS_P2;Temp;Humidity;BMP_temperature;BMP_pressure;BME280_temperature;BME280_humidity;BME280_pressure;Samples;Min_cycle;Max_cycle;Signal;HPM_P1;HPM_P2
2021/04/13 00:02:25;;;;;;;3.47;1.87;;;;;;;3.42;100.00;99233.41;5024993;28;20563;-71
2021/04/13 00:04:54;;;;;;;4.23;1.90;;;;;;;3.43;100.00;99238.56;5023157;28;20231;-71
2021/04/13 00:07:22;;;;;;;2.90;2.00;;;;;;;3.57;100.00;99233.00;5030404;28;20214;-72
2021/04/13 00:09:50;;;;;;;5.17;2.20;;;;;;;3.38;100.00;99232.00;5028745;28;20226;-71
2021/04/13 00:12:20;;;;;;;2.93;2.00;;;;;;;3.45;100.00;99238.47;5023246;28;20570;-71
2021/04/13 00:14:51;;;;;;;3.40;1.87;;;;;;;3.42;100.00;99233.41;5022957;28;20222;-71
2021/04/13 00:17:20;;;;;;;2.97;1.83;;;;;;;3.37;100.00;99233.81;5022573;28;20206;-72
2021/04/13 00:19:51;;;;;;;1.93;1.70;;;;;;;3.32;100.00;99233.34;5029076;28;20202;-71
2021/04/13 00:22:18;;;;;;;3.43;1.97;;;;;;;3.46;100.00;99234.84;5031603;28;20202;-71
2021/04/13 00:24:45;;;;;;;3.40;2.00;;;;;;;3.48;100.00;99235.53;5027263;28;20269;-71
2021/04/13 00:27:14;;;;;;;4.87;1.57;;;;;;;3.46;100.00;99238.31;5028271;28;20199;-71
2021/04/13 00:29:41;;;;;;;2.67;1.73;;;;;;;3.41;100.00;99242.31;5024005;28;20226;-71
2021/04/13 00:32:09;;;;;;;4.77;1.97;;;;;;;3.56;100.00;99233.94;5029501;28;20209;-71
2021/04/13 00:34:43;;;;;;;5.13;2.00;;;;;;;3.57;100.00;99230.38;5023772;28;20602;-71
2021/04/13 00:37:13;;;;;;;4.10;2.20;;;;;;;3.57;100.00;99227.72;5019408;28;20297;-71
2021/04/13 00:39:40;;;;;;;2.30;1.70;;;;;;;3.74;100.00;99229.78;5029224;28;20705;-71
2021/04/13 00:42:10;;;;;;;3.37;1.93;;;;;;;3.88;100.00;99226.81;5030073;28;20207;-72
2021/04/13 00:44:44;;;;;;;5.73;1.77;;;;;;;4.01;100.00;99232.72;5028165;28;20629;-71
2021/04/13 00:47:20;;;;;;;3.53;2.13;;;;;;;3.97;100.00;99236.59;5027038;28;20252;-71
2021/04/13 00:49:50;;;;;;;4.00;2.10;;;;;;;3.94;100.00;99230.72;5031345;28;20222;-71
2021/04/13 00:52:19;;;;;;;4.27;2.00;;;;;;;4.05;100.00;99228.88;5022690;28;20203;-71
2021/04/13 00:54:48;;;;;;;7.60;2.20;;;;;;;3.95;100.00;99230.59;5031006;28;20218;-70
2021/04/13 00:57:17;;;;;;;2.73;2.00;;;;;;;4.11;100.00;99232.78;5027712;28;20720;-71
2021/04/13 00:59:45;;;;;;;6.13;2.30;;;;;;;3.91;100.00;99242.38;5031369;28;20198;-72
2021/04/13 01:02:15;;;;;;;3.30;2.00;;;;;;;4.22;100.00;99232.72;5027783;28;20296;-71
2021/04/13 01:04:52;;;;;;;2.33;2.00;;;;;;;4.21;100.00;99233.69;5024314;28;20230;-71
2021/04/13 01:07:28;;;;;;;3.43;2.40;;;;;;;4.27;100.00;99235.78;5024922;28;20213;-71
2021/04/13 01:10:01;;;;;;;3.77;2.33;;;;;;;4.39;100.00;99242.66;5023130;28;20233;-71
2021/04/13 01:12:30;;;;;;;3.03;2.23;;;;;;;4.47;100.00;99240.19;5025709;28;20207;-72
2021/04/13 01:15:00;;;;;;;5.07;2.60;;;;;;;4.51;100.00;99237.16;5028214;28;20318;-71
2021/04/13 01:17:28;;;;;;;3.23;2.43;;;;;;;4.38;100.00;99239.19;5029536;28;20865;-72
2021/04/13 01:19:59;;;;;;;3.57;2.30;;;;;;;4.42;100.00;99235.28;5027278;28;20203;-71
2021/04/13 01:22:31;;;;;;;4.13;2.53;;;;;;;4.34;100.00;99239.56;5022699;28;20663;-72
2021/04/13 01:25:00;;;;;;;6.23;3.17;;;;;;;4.33;100.00;99232.63;5025368;28;20249;-72
2021/04/13 01:27:27;;;;;;;10.87;2.70;;;;;;;4.23;100.00;99239.66;5022142;28;20230;-71
2021/04/13 01:29:55;;;;;;;4.60;2.47;;;;;;;4.15;100.00;99235.03;5029446;28;20222;-72
2021/04/13 01:32:25;;;;;;;6.23;3.60;;;;;;;4.00;100.00;99241.63;5029362;28;20213;-72
2021/04/13 01:35:01;;;;;;;8.60;3.40;;;;;;;3.88;100.00;99239.19;5022622;28;20222;-71
2021/04/13 01:37:37;;;;;;;4.00;2.47;;;;;;;3.88;100.00;99234.75;5025672;28;20198;-72
2021/04/13 01:40:16;;;;;;;5.30;2.90;;;;;;;3.82;100.00;99235.25;5024434;28;20588;-71
2021/04/13 01:42:44;;;;;;;3.93;2.97;;;;;;;3.73;100.00;99238.69;5025047;28;20206;-71
2021/04/13 01:45:14;;;;;;;6.33;2.93;;;;;;;3.66;100.00;99234.84;5021799;28;20226;-72
2021/04/13 01:47:43;;;;;;;6.37;3.10;;;;;;;3.62;100.00;99230.81;5027588;28;20207;-72
2021/04/13 01:50:15;;;;;;;5.03;3.07;;;;;;;3.65;100.00;99235.81;5022960;28;20316;-72
2021/04/13 01:52:44;;;;;;;6.53;3.50;;;;;;;3.58;100.00;99234.66;5021003;28;20205;-72
2021/04/13 01:55:14;;;;;;;3.83;2.70;;;;;;;3.51;100.00;99232.66;5021092;28;20706;-72
2021/04/13 01:57:44;;;;;;;7.97;3.50;;;;;;;3.58;100.00;99231.19;5022808;28;20663;-71
2021/04/13 02:00:16;;;;;;;5.43;2.77;;;;;;;3.52;100.00;99237.81;5021515;28;20207;-72
2021/04/13 02:02:51;;;;;;;5.60;3.17;;;;;;;3.43;100.00;99238.56;5018624;28;20667;-72
2021/04/13 02:05:22;;;;;;;4.40;2.90;;;;;;;3.48;100.00;99239.03;5028362;28;20236;-71
2021/04/13 02:07:58;;;;;;;5.37;3.53;;;;;;;3.44;100.00;99242.03;5028159;28;20597;-71
2021/04/13 02:10:33;;;;;;;4.57;2.77;;;;;;;3.38;100.00;99253.09;5029362;28;20734;-71
2021/04/13 02:13:04;;;;;;;4.87;2.57;;;;;;;3.27;100.00;99251.34;5025901;28;20236;-72
2021/04/13 02:15:41;;;;;;;5.70;2.80;;;;;;;3.23;100.00;99257.00;5021241;28;20229;-72
2021/04/13 02:18:13;;;;;;;9.23;2.77;;;;;;;3.26;100.00;99247.00;5028367;28;20206;-71
2021/04/13 02:20:45;;;;;;;4.90;3.27;;;;;;;3.30;100.00;99252.91;5031658;28;20574;-72
2021/04/13 02:23:12;;;;;;;5.13;2.93;;;;;;;3.17;100.00;99245.16;5030383;28;20202;-71
2021/04/13 02:25:40;;;;;;;4.27;2.97;;;;;;;3.09;100.00;99252.84;5030048;28;20234;-71
2021/04/13 02:28:08;;;;;;;5.10;2.97;;;;;;;3.12;100.00;99251.75;5031205;28;20213;-72
2021/04/13 02:30:38;;;;;;;5.47;3.17;;;;;;;3.16;100.00;99258.47;5028668;28;20213;-71
2021/04/13 02:33:13;;;;;;;5.53;3.27;;;;;;;3.18;100.00;99253.88;5029105;28;20293;-71
2021/04/13 02:35:41;;;;;;;5.77;3.50;;;;;;;3.07;100.00;99264.47;5027940;28;20259;-71
2021/04/13 02:38:12;;;;;;;5.17;3.77;;;;;;;2.87;100.00;99263.44;5029693;28;20198;-71
2021/04/13 02:40:46;;;;;;;5.10;3.07;;;;;;;2.97;100.00;99256.47;5027666;28;20568;-72
2021/04/13 02:43:17;;;;;;;6.30;3.53;;;;;;;2.93;100.00;99259.47;5031365;28;20293;-71
2021/04/13 02:45:47;;;;;;;6.27;3.40;;;;;;;3.10;100.00;99259.78;5026985;28;20233;-71
2021/04/13 02:48:18;;;;;;;6.23;3.97;;;;;;;3.08;100.00;99266.13;5024028;28;20224;-72
2021/04/13 02:50:47;;;;;;;6.27;3.27;;;;;;;2.87;100.00;99263.44;5027656;28;20459;-72
2021/04/13 02:53:16;;;;;;;5.27;3.33;;;;;;;3.09;100.00;99263.38;5027082;28;20686;-72
2021/04/13 02:55:50;;;;;;;5.90;3.10;;;;;;;3.22;100.00;99264.09;5028717;28;20231;-71
2021/04/13 02:58:18;;;;;;;5.33;3.43;;;;;;;3.11;100.00;99261.44;5026754;28;20746;-71
2021/04/13 03:00:46;;;;;;;5.57;3.53;;;;;;;3.12;100.00;99263.16;5029180;28;20210;-71
2021/04/13 03:03:15;;;;;;;4.00;3.07;;;;;;;3.24;100.00;99264.78;5030673;28;20651;-72
2021/04/13 03:05:42;;;;;;;7.33;3.10;;;;;;;3.35;100.00;99270.00;5026657;28;20233;-71
2021/04/13 03:08:13;;;;;;;3.47;2.33;;;;;;;3.42;100.00;99271.22;5030783;28;20278;-72
2021/04/13 03:10:41;;;;;;;6.23;3.20;;;;;;;3.55;100.00;99269.22;5022424;28;20258;-72
2021/04/13 03:13:11;;;;;;;5.00;3.00;;;;;;;3.64;100.00;99268.47;5025130;28;20234;-71
2021/04/13 03:15:40;;;;;;;5.17;2.93;;;;;;;3.77;100.00;99269.09;5022654;28;20223;-71
2021/04/13 03:18:15;;;;;;;6.67;3.00;;;;;;;3.80;100.00;99260.09;5021700;28;20222;-71
2021/04/13 03:20:44;;;;;;;6.83;3.43;;;;;;;3.82;100.00;99264.28;5031121;28;20240;-72
2021/04/13 03:23:12;;;;;;;7.40;3.37;;;;;;;3.85;100.00;99265.81;5032036;28;20206;-71
2021/04/13 03:25:44;;;;;;;5.17;3.30;;;;;;;3.76;100.00;99262.16;5030544;28;20753;-72
2021/04/13 03:28:12;;;;;;;6.60;3.00;;;;;;;3.73;100.00;99264.22;5030292;28;20256;-71
2021/04/13 03:30:41;;;;;;;5.67;3.17;;;;;;;3.58;100.00;99261.06;5028107;28;20230;-71
2021/04/13 03:33:12;;;;;;;5.27;3.10;;;;;;;3.52;100.00;99258.94;5028739;28;20206;-71
2021/04/13 03:35:39;;;;;;;5.07;3.40;;;;;;;3.39;100.00;99257.41;5026297;28;20338;-71
2021/04/13 03:38:09;;;;;;;7.20;3.03;;;;;;;3.39;100.00;99249.50;5026745;28;20206;-71
2021/04/13 03:40:38;;;;;;;5.53;3.20;;;;;;;3.30;100.00;99255.53;5031266;28;20280;-71
2021/04/13 03:43:06;;;;;;;4.57;3.40;;;;;;;3.19;100.00;99264.31;5029876;28;20213;-71
2021/04/13 03:45:34;;;;;;;6.23;3.70;;;;;;;3.11;100.00;99263.25;5031662;28;20222;-71
2021/04/13 03:48:03;;;;;;;6.10;3.60;;;;;;;3.18;100.00;99264.44;5030609;28;20207;-72
2021/04/13 03:50:31;;;;;;;9.20;3.47;;;;;;;3.22;100.00;99265.88;5029740;28;20606;-71
2021/04/13 03:53:02;;;;;;;6.47;3.20;;;;;;;3.14;100.00;99265.63;5025087;28;20652;-71
2021/04/13 03:55:31;;;;;;;6.40;4.07;;;;;;;2.93;100.00;99270.84;5026969;28;20227;-71
2021/04/13 03:57:58;;;;;;;6.00;3.63;;;;;;;2.81;100.00;99271.00;5030043;28;20207;-71
2021/04/13 04:00:27;;;;;;;5.60;3.47;;;;;;;2.84;100.00;99276.84;5029942;28;20202;-71
2021/04/13 04:02:54;;;;;;;7.87;3.67;;;;;;;2.88;100.00;99278.28;5028563;28;20211;-71
2021/04/13 04:05:24;;;;;;;8.87;3.83;;;;;;;2.87;100.00;99275.78;5029321;28;20572;-71
2021/04/13 04:07:55;;;;;;;5.90;3.30;;;;;;;2.99;100.00;99277.41;5027754;28;20209;-71
2021/04/13 04:10:46;;;;;;;5.73;3.33;;;;;;;2.98;100.00;99278.38;5023369;28;20292;-71
2021/04/13 04:13:22;;;;;;;5.00;3.30;;;;;;;2.82;100.00;99284.06;5027413;28;20570;-71
2021/04/13 04:15:51;;;;;;;4.83;3.10;;;;;;;2.79;100.00;99284.28;5026316;28;20316;-72
2021/04/13 04:18:26;;;;;;;5.43;3.50;;;;;;;2.83;100.00;99283.09;5029826;28;20214;-71
2021/04/13 04:20:53;;;;;;;4.73;3.00;;;;;;;2.78;100.00;99287.03;5028882;28;20197;-71
2021/04/13 04:23:27;;;;;;;6.60;3.23;;;;;;;2.88;100.00;99288.84;5028054;28;20236;-71
2021/04/13 04:25:59;;;;;;;4.87;3.30;;;;;;;2.78;100.00;99287.88;5031427;28;20228;-71
2021/04/13 04:28:29;;;;;;;8.10;4.13;;;;;;;2.85;100.00;99289.06;5031069;28;20200;-71
2021/04/13 04:31:19;;;;;;;7.23;4.03;;;;;;;2.87;100.00;99289.81;5029834;28;20674;-71
2021/04/13 04:33:46;;;;;;;10.23;4.03;;;;;;;3.00;100.00;99292.31;5024089;28;20238;-71
2021/04/13 04:36:28;;;;;;;8.30;4.13;;;;;;;3.15;100.00;99296.34;5023856;28;20202;-71
2021/04/13 04:38:55;;;;;;;8.30;4.27;;;;;;;3.13;100.00;99293.84;5021539;28;20677;-71
2021/04/13 04:41:39;;;;;;;8.27;3.83;;;;;;;2.99;100.00;99291.47;5029993;28;20934;-71
2021/04/13 04:44:06;;;;;;;7.80;4.33;;;;;;;3.10;100.00;99290.59;5023047;28;20229;-70
2021/04/13 04:46:39;;;;;;;9.17;4.50;;;;;;;3.18;100.00;99291.66;5026400;28;20248;-71
2021/04/13 04:49:08;;;;;;;10.30;4.60;;;;;;;3.28;100.00;99303.16;5023089;28;20229;-71
2021/04/13 04:51:35;;;;;;;7.03;4.20;;;;;;;3.15;100.00;99302.44;5021975;28;20207;-72
2021/04/13 04:54:02;;;;;;;7.27;4.40;;;;;;;3.00;100.00;99298.41;5023714;28;20234;-72
2021/04/13 04:56:29;;;;;;;10.03;4.73;;;;;;;3.21;100.00;99307.22;5028544;28;20210;-71
2021/04/13 04:58:57;;;;;;;8.17;5.23;;;;;;;3.14;100.00;99305.19;5024819;28;20246;-70
2021/04/13 05:01:24;;;;;;;7.10;4.83;;;;;;;3.26;100.00;99315.59;5029880;28;20202;-72
2021/04/13 05:03:51;;;;;;;6.80;4.33;;;;;;;3.39;100.00;99315.44;5026876;28;20202;-73
2021/04/13 05:06:18;;;;;;;9.60;4.73;;;;;;;3.30;100.00;99314.41;5023899;28;20198;-71
2021/04/13 05:08:45;;;;;;;10.87;4.90;;;;;;;3.36;100.00;99319.19;5022791;28;20587;-72
2021/04/13 05:11:12;;;;;;;8.70;4.60;;;;;;;3.34;100.00;99320.25;5030269;28;20201;-73
2021/04/13 05:13:39;;;;;;;6.60;4.07;;;;;;;3.44;100.00;99321.19;5023459;28;20221;-72
2021/04/13 05:16:07;;;;;;;7.77;4.30;;;;;;;3.59;100.00;99328.72;5025887;28;20233;-72
2021/04/13 05:18:34;;;;;;;11.73;5.10;;;;;;;3.54;100.00;99322.13;5024152;28;20210;-73
2021/04/13 05:21:02;;;;;;;9.37;4.90;;;;;;;3.65;100.00;99336.13;5028843;28;20213;-70
2021/04/13 05:23:28;;;;;;;10.80;4.97;;;;;;;3.77;100.00;99335.09;5020027;28;20206;-71
2021/04/13 05:25:55;;;;;;;9.87;5.10;;;;;;;3.89;100.00;99339.41;5027620;28;20706;-73
2021/04/13 05:28:22;;;;;;;5.63;4.40;;;;;;;4.21;100.00;99337.53;5028365;28;20584;-74
2021/04/13 05:30:50;;;;;;;11.53;6.20;;;;;;;4.40;100.00;99340.31;5029369;28;20227;-73
2021/04/13 05:33:19;;;;;;;8.87;5.37;;;;;;;4.36;100.00;99348.66;5032805;28;20198;-72
2021/04/13 05:35:46;;;;;;;8.50;5.30;;;;;;;4.52;100.00;99352.47;5030417;28;20230;-72
2021/04/13 05:38:17;;;;;;;9.20;5.27;;;;;;;4.61;100.00;99354.34;5030504;28;20204;-73
2021/04/13 05:40:44;;;;;;;8.90;4.90;;;;;;;4.56;100.00;99348.63;5028436;28;20209;-74
2021/04/13 05:43:12;;;;;;;7.17;4.80;;;;;;;4.43;100.00;99355.91;5027611;28;20288;-77
2021/04/13 05:45:41;;;;;;;8.97;5.17;;;;;;;4.49;100.00;99355.41;5027920;28;20244;-76
2021/04/13 05:48:10;;;;;;;7.33;5.00;;;;;;;4.63;100.00;99362.16;5016116;28;20532;-71
2021/04/13 05:50:39;;;;;;;10.30;5.00;;;;;;;4.86;100.00;99363.66;5024998;28;20559;-71
2021/04/13 05:53:07;;;;;;;7.37;4.47;;;;;;;4.85;100.00;99362.81;5026512;28;20214;-69
2021/04/13 05:55:34;;;;;;;6.60;4.30;;;;;;;4.69;100.00;99359.81;5031895;28;20229;-69
2021/04/13 05:58:03;;;;;;;7.70;4.50;;;;;;;4.90;100.00;99371.22;5028611;28;20213;-75
2021/04/13 06:00:33;;;;;;;10.27;5.10;;;;;;;4.88;100.00;99370.47;5027378;28;20603;-71
2021/04/13 06:03:08;;;;;;;9.30;5.07;;;;;;;4.76;100.00;99368.06;5031480;28;20225;-74
2021/04/13 06:05:34;;;;;;;8.23;5.00;;;;;;;5.18;100.00;99365.19;5031111;28;20691;-68
2021/04/13 06:08:02;;;;;;;6.47;4.63;;;;;;;5.26;100.00;99365.34;5031753;28;20210;-71
2021/04/13 06:10:29;;;;;;;6.53;4.70;;;;;;;5.58;100.00;99362.50;5030588;28;20317;-71
2021/04/13 06:12:57;;;;;;;9.10;4.93;;;;;;;4.99;100.00;99365.13;5032446;28;20206;-70
2021/04/13 06:15:26;;;;;;;8.30;4.97;;;;;;;5.46;100.00;99358.28;5029202;28;20233;-69
2021/04/13 06:17:53;;;;;;;6.97;4.93;;;;;;;5.65;100.00;99367.13;5032538;28;20683;-70
2021/04/13 06:20:22;;;;;;;8.60;4.77;;;;;;;5.74;97.77;99358.34;5033702;28;20208;-70
2021/04/13 06:22:49;;;;;;;11.40;5.30;;;;;;;5.64;99.12;99368.06;5025115;28;20207;-70
2021/04/13 06:25:18;;;;;;;8.10;5.27;;;;;;;5.55;100.00;99373.38;5031782;28;20243;-70
2021/04/13 06:27:45;;;;;;;8.87;5.60;;;;;;;6.07;96.44;99371.22;5027187;28;20212;-70
2021/04/13 06:30:13;;;;;;;9.27;5.53;;;;;;;5.95;96.28;99377.63;5030968;28;20729;-69
2021/04/13 06:32:40;;;;;;;7.50;5.13;;;;;;;6.19;93.04;99377.22;5031666;28;20625;-70
2021/04/13 06:35:08;;;;;;;7.67;5.50;;;;;;;6.54;89.49;99382.78;5025991;28;20257;-71
2021/04/13 06:37:35;;;;;;;9.07;5.27;;;;;;;6.06;91.48;99385.47;5028779;28;20209;-70
2021/04/13 06:40:04;;;;;;;6.00;4.37;;;;;;;5.58;93.99;99389.00;5029898;28;20265;-70
2021/04/13 06:42:46;;;;;;;7.97;4.80;;;;;;;6.32;89.14;99386.56;5025022;28;20290;-70
2021/04/13 06:45:27;;;;;;;8.70;5.17;;;;;;;6.14;89.69;99392.72;5029951;28;20219;-70
2021/04/13 06:48:20;;;;;;;8.23;4.60;;;;;;;5.94;91.66;99385.72;5032843;28;20259;-70
2021/04/13 06:50:53;;;;;;;7.00;4.53;;;;;;;6.03;92.66;99384.88;5023776;28;20231;-70
2021/04/13 06:53:30;;;;;;;7.57;5.27;;;;;;;6.15;88.96;99397.03;5029442;28;20216;-69
2021/04/13 06:56:19;;;;;;;7.10;5.10;;;;;;;6.39;88.68;99389.50;5028839;28;20226;-70
2021/04/13 06:59:11;;;;;;;7.03;5.10;;;;;;;5.90;94.47;99381.69;5027772;28;20219;-69
2021/04/13 07:01:41;;;;;;;9.33;5.07;;;;;;;6.51;88.26;99383.91;5026453;28;20315;-71
2021/04/13 07:04:11;;;;;;;7.53;5.20;;;;;;;6.55;85.60;99390.56;5023559;28;20255;-71
2021/04/13 07:06:41;;;;;;;6.83;4.37;;;;;;;6.69;85.65;99390.13;5027051;28;21351;-70
2021/04/13 07:09:14;;;;;;;6.53;4.70;;;;;;;7.30;80.39;99395.81;5026552;28;20252;-70
2021/04/13 07:11:45;;;;;;;10.00;5.27;;;;;;;7.18;83.09;99394.31;5029328;28;20624;-71
2021/04/13 07:14:18;;;;;;;7.63;5.17;;;;;;;7.08;79.70;99404.13;5026767;28;20237;-71
2021/04/13 07:16:52;;;;;;;6.17;4.33;;;;;;;7.33;78.55;99396.34;5030103;28;20662;-71
2021/04/13 07:19:22;;;;;;;6.90;4.90;;;;;;;6.57;82.13;99390.44;5027794;28;20204;-70
2021/04/13 07:21:54;;;;;;;9.40;5.20;;;;;;;6.92;80.29;99393.28;5030459;28;20681;-71
2021/04/13 07:24:24;;;;;;;6.33;4.97;;;;;;;6.83;80.95;99404.75;5022832;28;20942;-69
2021/04/13 07:26:59;;;;;;;8.70;5.23;;;;;;;7.00;81.61;99394.22;5026055;28;20211;-70
2021/04/13 07:29:30;;;;;;;6.53;5.07;;;;;;;7.75;78.92;99402.81;5022834;28;20320;-69
2021/04/13 07:32:01;;;;;;;13.50;6.10;;;;;;;7.07;83.99;99400.66;5030470;28;20354;-70
2021/04/13 07:34:29;;;;;;;8.57;6.07;;;;;;;7.04;86.87;99410.69;5030437;28;20228;-70
2021/04/13 07:36:59;;;;;;;7.87;5.60;;;;;;;7.51;82.70;99412.34;5029013;28;20212;-70
2021/04/13 07:39:27;;;;;;;8.77;5.67;;;;;;;7.34;86.08;99405.97;5029305;28;20205;-70
2021/04/13 07:41:58;;;;;;;12.73;6.23;;;;;;;7.63;85.87;99401.38;5030114;28;20204;-70
2021/04/13 07:44:37;;;;;;;8.27;6.13;;;;;;;6.54;90.81;99402.16;5026527;28;20291;-69
2021/04/13 07:47:17;;;;;;;7.70;5.90;;;;;;;6.79;90.88;99403.34;5024021;28;20212;-71
2021/04/13 07:49:50;;;;;;;10.93;6.07;;;;;;;7.34;88.60;99413.09;5024814;28;20229;-69
2021/04/13 07:52:28;;;;;;;6.90;5.73;;;;;;;7.53;88.14;99402.38;5024806;28;20687;-70
2021/04/13 07:54:57;;;;;;;9.37;6.63;;;;;;;7.52;85.97;99404.19;5030278;28;20227;-71
2021/04/13 07:57:30;;;;;;;9.43;6.60;;;;;;;7.59;84.53;99400.00;5026195;28;20202;-69
2021/04/13 08:00:18;;;;;;;8.80;6.20;;;;;;;6.93;89.02;99403.75;5028122;28;20206;-70
2021/04/13 08:02:49;;;;;;;10.67;6.83;;;;;;;6.79;93.04;99400.72;5028339;28;20236;-69
2021/04/13 08:05:36;;;;;;;11.00;7.30;;;;;;;7.11;93.19;99404.66;5028920;28;20224;-68
2021/04/13 08:08:06;;;;;;;11.00;6.93;;;;;;;7.40;88.60;99407.19;5029882;28;20207;-71
2021/04/13 08:10:36;;;;;;;9.93;6.97;;;;;;;7.44;87.21;99412.09;5031067;28;20239;-70
2021/04/13 08:13:06;;;;;;;11.87;7.00;;;;;;;7.40;89.38;99410.69;5030036;28;20210;-70
2021/04/13 08:15:50;;;;;;;10.70;7.30;;;;;;;7.42;93.43;99414.03;5027100;28;20283;-71
2021/04/13 08:18:34;;;;;;;13.57;8.13;;;;;;;7.36;97.61;99408.50;5030586;28;20217;-69
2021/04/13 08:21:17;;;;;;;12.97;8.50;;;;;;;7.41;97.29;99412.38;5033925;28;20216;-69
2021/04/13 08:23:44;;;;;;;12.10;8.07;;;;;;;7.53;97.70;99419.19;5036581;28;20218;-72
2021/04/13 08:26:40;;;;;;;12.73;7.40;;;;;;;7.20;95.06;99414.41;5036332;28;20231;-69
2021/04/13 08:29:15;;;;;;;9.97;6.67;;;;;;;7.10;96.69;99405.66;5034693;28;20837;-69
2021/04/13 08:34:46;;;;;;;12.47;7.63;;;;;;;7.34;98.93;99415.75;5028586;28;20243;-69
2021/04/13 08:37:25;;;;;;;14.17;8.83;;;;;;;6.93;100.00;99411.72;5029189;28;20207;-70
2021/04/13 08:40:09;;;;;;;12.63;8.03;;;;;;;7.10;100.00;99421.56;5026568;28;20208;-70
2021/04/13 08:42:44;;;;;;;14.33;8.23;;;;;;;7.54;93.91;99415.53;5027374;28;20212;-71
2021/04/13 08:45:18;;;;;;;12.17;7.47;;;;;;;7.88;92.60;99407.78;5027837;28;20234;-71
2021/04/13 08:47:47;;;;;;;16.33;8.30;;;;;;;7.97;90.83;99405.03;5026388;28;20207;-70
2021/04/13 08:50:36;;;;;;;12.07;7.53;;;;;;;8.54;78.15;99417.09;5027850;28;20293;-69
2021/04/13 08:53:05;;;;;;;12.73;7.53;;;;;;;8.97;74.18;99412.59;5024400;28;20214;-71
2021/04/13 08:55:49;;;;;;;12.23;7.43;;;;;;;8.65;76.33;99415.03;5020488;28;20280;-70
2021/04/13 08:58:33;;;;;;;10.53;7.27;;;;;;;8.85;77.03;99407.69;5024727;28;20209;-71
2021/04/13 09:01:00;;;;;;;9.77;6.97;;;;;;;9.00;77.54;99417.59;5029114;28;20578;-69
2021/04/13 09:03:41;;;;;;;10.70;7.10;;;;;;;9.32;71.77;99423.13;5029762;28;20210;-70
2021/04/13 09:06:11;;;;;;;10.33;7.17;;;;;;;9.26;71.25;99413.09;5023214;28;20233;-70
2021/04/13 09:08:48;;;;;;;18.67;7.70;;;;;;;9.17;73.00;99415.84;5030607;28;20211;-69
2021/04/13 09:11:31;;;;;;;9.80;6.70;;;;;;;9.08;72.72;99422.97;5022917;28;20663;-70
2021/04/13 09:14:23;;;;;;;10.30;7.47;;;;;;;8.33;75.41;99413.91;5021413;28;20210;-70
2021/04/13 09:16:58;;;;;;;8.47;7.03;;;;;;;7.92;79.63;99417.13;5029097;28;20213;-70
2021/04/13 09:19:30;;;;;;;8.97;6.67;;;;;;;8.38;73.04;99416.97;5028427;28;20599;-71
2021/04/13 09:22:02;;;;;;;9.60;6.10;;;;;;;8.41;65.22;99433.44;5026538;28;20214;-69
2021/04/13 09:24:43;;;;;;;9.57;5.70;;;;;;;8.42;66.57;99428.97;5022373;28;20242;-73
2021/04/13 09:27:25;;;;;;;9.20;5.40;;;;;;;8.29;60.61;99439.13;5026953;28;20591;-72
2021/04/13 09:29:54;;;;;;;8.73;4.67;;;;;;;8.56;60.33;99439.88;5030441;28;20218;-75
2021/04/13 09:32:38;;;;;;;7.27;4.90;;;;;;;9.19;56.80;99440.53;5027462;28;20230;-71
2021/04/13 09:35:23;;;;;;;6.60;4.60;;;;;;;8.47;55.74;99448.78;5026274;28;20240;-69
2021/04/13 09:38:00;;;;;;;7.20;4.33;;;;;;;8.05;53.91;99458.31;5028983;28;20602;-72
2021/04/13 09:40:38;;;;;;;6.27;4.17;;;;;;;8.04;54.13;99450.47;5027936;28;20261;-73
2021/04/13 09:43:30;;;;;;;7.13;4.23;;;;;;;8.56;52.31;99449.69;5027220;28;20210;-75
2021/04/13 09:46:02;;;;;;;7.40;5.10;;;;;;;8.39;56.27;99438.09;5022916;28;20236;-73
2021/04/13 09:49:02;;;;;;;6.77;5.10;;;;;;;7.96;54.55;99443.25;5027980;28;20201;-74
2021/04/13 09:51:55;;;;;;;4.77;3.77;;;;;;;8.23;47.78;99461.84;5025373;28;20347;-73
2021/04/13 09:54:32;;;;;;;5.60;3.90;;;;;;;9.43;48.36;99454.81;5021272;28;20240;-75
2021/04/13 09:57:26;;;;;;;6.37;4.33;;;;;;;9.32;45.97;99454.25;5021879;28;20661;-71
2021/04/13 10:00:06;;;;;;;6.10;4.57;;;;;;;9.78;48.15;99443.13;5028403;28;20557;-70
2021/04/13 10:02:48;;;;;;;7.33;4.13;;;;;;;9.76;47.77;99435.31;5025675;28;20198;-74
2021/04/13 10:05:17;;;;;;;8.13;3.93;;;;;;;9.39;44.87;99450.78;5028724;28;20594;-72
2021/04/13 10:07:53;;;;;;;8.03;5.20;;;;;;;9.77;47.12;99449.47;5026724;28;20253;-69
2021/04/13 10:10:24;;;;;;;10.73;5.10;;;;;;;9.75;49.72;99436.28;5027603;28;20710;-76
2021/04/13 10:13:13;;;;;;;7.53;5.17;;;;;;;9.35;49.71;99441.47;5024257;28;20210;-77
2021/04/13 10:16:07;;;;;;;7.73;4.57;;;;;;;9.25;48.86;99440.75;5021124;28;20238;-74
2021/04/13 10:19:08;;;;;;;7.10;4.57;;;;;;;9.04;50.07;99432.25;5025765;28;20229;-71
2021/04/13 10:22:05;;;;;;;8.13;5.13;;;;;;;8.63;51.73;99434.78;5017526;28;20203;-72
2021/04/13 10:25:08;;;;;;;6.30;3.83;;;;;;;8.73;50.69;99432.88;5026069;28;20281;-73
2021/04/13 10:28:11;;;;;;;9.13;5.27;;;;;;;7.95;52.73;99438.06;5026772;28;20244;-74
2021/04/13 10:31:07;;;;;;;8.93;5.17;;;;;;;8.10;54.22;99421.47;5025349;28;20229;-73
2021/04/13 10:34:05;;;;;;;7.40;4.90;;;;;;;8.85;51.64;99424.50;5022505;28;20213;-72
2021/04/13 10:37:14;;;;;;;7.27;5.20;;;;;;;9.33;49.87;99415.97;4986028;28;20219;-70
2021/04/13 10:39:46;;;;;;;10.10;4.80;;;;;;;9.69;48.24;99423.59;5026840;28;20589;-70
2021/04/13 10:42:46;;;;;;;5.87;3.53;;;;;;;9.53;40.60;99460.84;5027196;28;20210;-73
2021/04/13 10:45:23;;;;;;;5.10;3.50;;;;;;;9.83;39.22;99468.31;5026553;28;20225;-70
2021/04/13 10:48:43;;;;;;;5.33;3.50;;;;;;;9.48;40.69;99443.69;5030106;28;20620;-72
2021/04/13 10:51:39;;;;;;;5.63;3.70;;;;;;;9.98;37.56;99463.19;5028704;28;20313;-72
2021/04/13 10:54:42;;;;;;;3.57;3.27;;;;;;;9.98;38.39;99463.19;4994497;28;20229;-70
2021/04/13 10:57:37;;;;;;;4.63;3.50;;;;;;;10.07;38.78;99448.13;5027590;28;20214;-71
2021/04/13 11:00:27;;;;;;;6.00;3.67;;;;;;;9.78;40.17;99430.66;5029470;28;20198;-71
2021/04/13 11:03:13;;;;;;;4.87;3.50;;;;;;;10.59;39.87;99423.66;5024640;28;20675;-71
2021/04/13 11:06:13;;;;;;;4.10;3.27;;;;;;;10.50;35.72;99443.38;5027720;28;20238;-71
2021/04/13 11:09:32;;;;;;;4.07;3.10;;;;;;;9.74;36.89;99444.47;4986868;28;20265;-71
2021/04/13 11:12:14;;;;;;;6.67;3.77;;;;;;;10.71;36.66;99436.50;5031117;28;20211;-71
2021/04/13 11:15:23;;;;;;;6.53;3.43;;;;;;;10.04;40.36;99415.41;5024579;28;20242;-72
2021/04/13 11:17:59;;;;;;;5.73;3.60;;;;;;;9.92;37.33;99446.03;5006445;28;20264;-70
2021/04/13 11:21:05;;;;;;;4.87;3.17;;;;;;;9.14;35.31;99453.47;5023517;28;20203;-71
2021/04/13 11:23:58;;;;;;;4.10;3.30;;;;;;;9.50;35.38;99450.53;5029204;28;20264;-70
2021/04/13 11:27:17;;;;;;;3.37;2.53;;;;;;;9.79;32.04;99466.97;5018371;28;20206;-78
2021/04/13 11:30:16;;;;;;;7.10;3.00;;;;;;;9.56;34.64;99446.38;5028647;28;20234;-71
2021/04/13 11:33:30;;;;;;;8.13;3.33;;;;;;;10.21;35.33;99421.63;5030329;28;20686;-71
2021/04/13 11:36:08;;;;;;;4.10;3.50;;;;;;;10.79;36.01;99411.63;5004837;28;20230;-71
2021/04/13 11:38:50;;;;;;;4.67;3.47;;;;;;;11.22;34.40;99420.09;5030392;28;20210;-71
2021/04/13 11:42:14;;;;;;;5.20;3.53;;;;;;;11.41;35.50;99408.19;5031292;28;20230;-71
2021/04/13 11:44:44;;;;;;;3.83;3.20;;;;;;;10.66;36.23;99409.47;5029185;28;20374;-69
2021/04/13 11:47:17;;;;;;;5.00;3.47;;;;;;;9.93;35.73;99421.03;5026059;28;20576;-73
2021/04/13 11:49:50;;;;;;;4.37;3.17;;;;;;;10.34;34.84;99412.13;5029517;28;20231;-72
2021/04/13 11:52:25;;;;;;;4.53;3.23;;;;;;;10.13;34.12;99436.78;5029523;28;20574;-70
2021/04/13 11:54:53;;;;;;;4.50;3.30;;;;;;;10.30;34.25;99418.78;5028709;28;20232;-71
2021/04/13 11:57:23;;;;;;;4.87;3.37;;;;;;;11.03;36.63;99400.94;5026922;28;20276;-69
2021/04/13 12:00:24;;;;;;;5.30;3.50;;;;;;;9.37;42.76;99380.00;5025781;28;20652;-73
2021/04/13 12:03:04;;;;;;;4.43;3.27;;;;;;;9.99;42.63;99396.38;5028736;28;20249;-70
2021/04/13 12:05:42;;;;;;;5.43;3.80;;;;;;;10.48;42.59;99383.13;5026554;28;20231;-72
2021/04/13 12:08:47;;;;;;;6.73;3.53;;;;;;;10.95;40.54;99393.75;5027686;28;20293;-71
2021/04/13 12:11:17;;;;;;;4.60;3.70;;;;;;;10.19;41.79;99392.44;5026525;28;20602;-69
2021/04/13 12:13:48;;;;;;;6.83;4.30;;;;;;;10.70;40.15;99400.13;5029566;28;20211;-70
2021/04/13 12:16:17;;;;;;;5.60;3.73;;;;;;;10.49;40.65;99402.47;5027260;28;20207;-72
2021/04/13 12:18:51;;;;;;;6.27;3.73;;;;;;;10.78;39.15;99401.97;5028828;28;20210;-71